createdAt,value
2017-11-21T00:01:32.564Z,0.00
2017-11-21T00:02:32.514Z,0.00
2017-11-21T00:04:25.265Z,0.00
2017-11-21T00:05:25.200Z,0.00
2017-11-21T00:07:17.958Z,0.00
2017-11-21T00:08:17.892Z,0.00
2017-11-21T00:10:10.663Z,0.00
2017-11-21T00:11:10.585Z,0.00
2017-11-21T00:13:03.364Z,0.00
2017-11-21T00:14:03.287Z,0.00
2017-11-21T00:15:56.068Z,0.00
2017-11-21T00:16:55.980Z,0.00
2017-11-21T00:18:48.743Z,0.00
2017-11-21T00:19:48.671Z,0.00
2017-11-21T00:21:41.446Z,0.00
2017-11-21T00:22:41.368Z,0.00
2017-11-21T00:24:34.148Z,0.00
2017-11-21T00:25:34.070Z,0.00
2017-11-21T00:27:26.835Z,0.00
2017-11-21T00:28:26.766Z,0.00
2017-11-21T00:30:19.533Z,0.00
2017-11-21T00:31:19.469Z,0.00
2017-11-21T00:33:12.226Z,0.00
2017-11-21T00:34:12.161Z,0.00
2017-11-21T00:36:04.939Z,0.00
2017-11-21T00:37:04.876Z,0.00
2017-11-21T00:38:57.635Z,0.00
2017-11-21T00:39:57.554Z,0.00
2017-11-21T00:41:50.339Z,0.00
2017-11-21T00:42:50.249Z,0.00
2017-11-21T00:44:43.016Z,0.00
2017-11-21T00:45:42.952Z,0.00
2017-11-21T00:47:35.745Z,0.00
2017-11-21T00:48:35.659Z,0.00
2017-11-21T00:50:28.419Z,0.00
2017-11-21T00:51:28.345Z,0.00
2017-11-21T00:53:21.121Z,0.00
2017-11-21T00:54:21.046Z,0.00
2017-11-21T00:56:12.804Z,0.00
2017-11-21T00:57:12.724Z,0.00
2017-11-21T00:59:05.485Z,0.00
2017-11-21T01:00:05.423Z,0.00
2017-11-21T01:01:58.193Z,0.00
2017-11-21T01:02:58.119Z,0.00
2017-11-21T01:04:50.897Z,0.00
2017-11-21T01:05:50.825Z,0.00
2017-11-21T01:07:42.580Z,0.00
2017-11-21T01:08:42.507Z,0.00
2017-11-21T01:10:35.271Z,0.00
2017-11-21T01:11:35.205Z,0.00
2017-11-21T01:13:27.972Z,0.00
2017-11-21T01:14:27.907Z,0.00
2017-11-21T01:16:20.667Z,0.00
2017-11-21T01:17:20.611Z,0.00
2017-11-21T01:19:13.379Z,0.00
2017-11-21T01:20:13.314Z,0.00
2017-11-21T01:22:06.105Z,0.00
2017-11-21T01:23:06.003Z,0.00
2017-11-21T01:24:58.778Z,0.00
2017-11-21T01:25:58.698Z,0.00
2017-11-21T01:27:51.480Z,0.00
2017-11-21T01:28:51.392Z,0.00
2017-11-21T01:30:44.157Z,0.00
2017-11-21T01:31:44.083Z,0.00
2017-11-21T01:33:36.853Z,0.00
2017-11-21T01:34:36.783Z,0.00
2017-11-21T01:36:29.545Z,0.00
2017-11-21T01:37:29.479Z,0.00
2017-11-21T01:39:22.249Z,0.00
2017-11-21T01:40:22.179Z,0.00
2017-11-21T01:42:14.939Z,0.00
2017-11-21T01:43:14.882Z,0.00
2017-11-21T01:45:07.648Z,0.00
2017-11-21T01:46:07.584Z,0.00
2017-11-21T01:48:00.343Z,0.00
2017-11-21T01:49:00.275Z,0.00
2017-11-21T01:50:53.047Z,0.00
2017-11-21T01:51:52.966Z,0.00
2017-11-21T01:53:44.725Z,0.00
2017-11-21T01:54:44.649Z,0.00
2017-11-21T01:56:36.400Z,0.00
2017-11-21T01:57:36.343Z,0.00
2017-11-21T01:59:28.084Z,0.00
2017-11-21T02:00:28.021Z,0.00
2017-11-21T02:02:19.759Z,0.00
2017-11-21T02:03:19.697Z,0.00
2017-11-21T02:05:11.440Z,0.00
2017-11-21T02:06:11.370Z,0.00
2017-11-21T02:08:03.125Z,0.00
2017-11-21T02:09:03.056Z,0.00
2017-11-21T02:10:54.816Z,0.00
2017-11-21T02:11:54.738Z,0.00
2017-11-21T02:13:47.497Z,0.00
2017-11-21T02:14:47.434Z,0.00
2017-11-21T02:16:40.201Z,0.00
2017-11-21T02:17:40.135Z,0.00
2017-11-21T02:19:32.895Z,0.00
2017-11-21T02:20:32.832Z,0.00
2017-11-21T02:22:26.179Z,0.00
2017-11-21T02:23:25.926Z,0.00
2017-11-21T02:25:18.490Z,0.00
2017-11-21T02:26:18.410Z,0.00
2017-11-21T02:28:11.197Z,0.00
2017-11-21T02:29:11.107Z,0.00
2017-11-21T02:31:03.881Z,0.00
2017-11-21T02:32:03.799Z,0.00
2017-11-21T02:33:56.569Z,0.00
2017-11-21T02:34:56.505Z,0.00
2017-11-21T02:36:49.267Z,0.00
2017-11-21T02:37:49.196Z,0.00
2017-11-21T02:39:41.964Z,0.00
2017-11-21T02:40:41.892Z,0.00
2017-11-21T02:42:34.666Z,0.00
2017-11-21T02:43:34.601Z,0.00
2017-11-21T02:45:27.354Z,0.00
2017-11-21T02:46:27.279Z,0.00
2017-11-21T02:48:20.057Z,0.00
2017-11-21T02:49:19.973Z,0.00
2017-11-21T02:51:12.734Z,0.00
2017-11-21T02:52:12.660Z,0.00
2017-11-21T02:54:05.444Z,0.00
2017-11-21T02:55:05.360Z,0.00
2017-11-21T02:56:58.172Z,0.00
2017-11-21T02:57:58.059Z,0.00
2017-11-21T02:59:49.803Z,0.00
2017-11-21T03:00:49.734Z,0.00
2017-11-21T03:01:49.674Z,0.00
2017-11-21T03:02:49.617Z,0.00
2017-11-21T03:03:49.561Z,0.00
2017-11-21T03:04:49.485Z,0.00
2017-11-21T03:05:49.421Z,0.00
2017-11-21T03:06:49.360Z,0.00
2017-11-21T03:07:49.290Z,0.00
2017-11-21T03:08:49.231Z,0.00
2017-11-21T03:09:49.170Z,0.00
2017-11-21T03:10:49.114Z,0.00
2017-11-21T03:11:49.045Z,0.00
2017-11-21T03:12:48.978Z,0.00
2017-11-21T03:13:48.916Z,0.00
2017-11-21T03:14:48.846Z,0.00
2017-11-21T03:15:48.787Z,0.00
2017-11-21T03:16:48.727Z,0.00
2017-11-21T03:17:48.671Z,0.00
2017-11-21T03:18:48.613Z,0.00
2017-11-21T03:19:48.556Z,0.00
2017-11-21T03:20:48.475Z,0.00
2017-11-21T03:21:48.413Z,0.00
2017-11-21T03:22:48.342Z,0.00
2017-11-21T03:23:48.284Z,0.00
2017-11-21T03:24:48.224Z,0.00
2017-11-21T03:25:48.165Z,0.00
2017-11-21T03:26:48.109Z,0.00
2017-11-21T03:27:48.034Z,0.00
2017-11-21T03:28:47.971Z,0.00
2017-11-21T03:29:47.910Z,0.00
2017-11-21T03:30:47.840Z,0.00
2017-11-21T03:31:47.781Z,0.00
2017-11-21T03:32:47.723Z,0.00
2017-11-21T03:33:47.662Z,0.00
2017-11-21T03:34:47.606Z,0.00
2017-11-21T03:35:47.527Z,0.00
2017-11-21T03:36:47.469Z,0.00
2017-11-21T03:37:47.414Z,0.00
2017-11-21T03:38:47.336Z,0.00
2017-11-21T03:39:47.286Z,0.00
2017-11-21T03:40:47.217Z,0.00
2017-11-21T03:41:47.157Z,0.00
2017-11-21T03:42:47.104Z,0.00
2017-11-21T03:43:47.026Z,0.00
2017-11-21T03:44:46.963Z,0.00
2017-11-21T03:45:46.900Z,0.00
2017-11-21T03:46:46.834Z,0.00
2017-11-21T03:47:46.772Z,0.00
2017-11-21T03:48:46.712Z,0.00
2017-11-21T03:49:46.655Z,0.00
2017-11-21T03:50:46.601Z,0.00
2017-11-21T03:51:46.523Z,0.00
2017-11-21T03:52:46.463Z,0.00
2017-11-21T03:53:46.390Z,0.00
2017-11-21T03:54:46.328Z,0.00
2017-11-21T03:55:46.270Z,0.00
2017-11-21T03:56:46.209Z,0.00
2017-11-21T03:57:46.152Z,0.00
2017-11-21T03:58:46.093Z,0.00
2017-11-21T03:59:46.017Z,0.00
2017-11-21T04:00:45.946Z,0.00
2017-11-21T04:01:45.889Z,0.00
2017-11-21T04:02:45.825Z,0.00
2017-11-21T04:03:45.763Z,0.00
2017-11-21T04:04:45.707Z,0.00
2017-11-21T04:05:45.651Z,0.00
2017-11-21T04:06:45.572Z,0.00
2017-11-21T04:07:45.512Z,0.00
2017-11-21T04:08:45.445Z,0.00
2017-11-21T04:09:45.386Z,0.00
2017-11-21T04:10:45.322Z,0.00
2017-11-21T04:11:45.259Z,0.00
2017-11-21T04:12:45.203Z,0.00
2017-11-21T04:13:45.149Z,0.00
2017-11-21T04:14:45.069Z,0.00
2017-11-21T04:15:45.006Z,0.00
2017-11-21T04:16:44.965Z,0.00
2017-11-21T04:17:44.877Z,0.00
2017-11-21T04:18:44.814Z,0.00
2017-11-21T04:19:44.756Z,0.00
2017-11-21T04:20:44.701Z,0.00
2017-11-21T04:21:44.632Z,0.00
2017-11-21T04:22:44.566Z,0.00
2017-11-21T04:23:44.503Z,0.00
2017-11-21T04:24:44.440Z,0.00
2017-11-21T04:25:44.374Z,0.00
2017-11-21T04:26:44.315Z,0.00
2017-11-21T04:27:44.253Z,0.00
2017-11-21T04:28:44.207Z,0.00
2017-11-21T04:29:44.123Z,0.00
2017-11-21T04:30:44.060Z,0.00
2017-11-21T04:31:43.999Z,0.00
2017-11-21T04:32:43.931Z,0.00
2017-11-21T04:33:43.871Z,0.00
2017-11-21T04:34:43.808Z,0.00
2017-11-21T04:35:43.750Z,0.00
2017-11-21T04:36:43.682Z,0.00
2017-11-21T04:37:43.622Z,0.00
2017-11-21T04:38:43.559Z,0.00
2017-11-21T04:39:43.495Z,0.00
2017-11-21T04:40:43.427Z,0.00
2017-11-21T04:41:43.366Z,0.00
2017-11-21T04:42:43.313Z,0.00
2017-11-21T04:43:43.248Z,0.00
2017-11-21T04:44:43.180Z,0.00
2017-11-21T04:45:43.116Z,0.00
2017-11-21T04:46:43.053Z,0.00
2017-11-21T04:47:42.984Z,0.00
2017-11-21T04:48:42.923Z,0.00
2017-11-21T04:49:42.865Z,0.00
2017-11-21T04:50:42.804Z,0.00
2017-11-21T04:51:42.745Z,0.00
2017-11-21T04:52:42.691Z,0.00
2017-11-21T04:53:42.612Z,0.00
2017-11-21T04:54:42.548Z,0.00
2017-11-21T04:55:42.486Z,0.00
2017-11-21T04:56:42.425Z,0.00
2017-11-21T04:57:42.360Z,0.00
2017-11-21T04:58:42.298Z,0.00
2017-11-21T04:59:42.242Z,0.00
2017-11-21T05:00:42.192Z,0.00
2017-11-21T05:01:42.107Z,0.00
2017-11-21T05:02:42.045Z,0.00
2017-11-21T05:03:41.974Z,0.00
2017-11-21T05:04:41.916Z,0.00
2017-11-21T05:05:41.856Z,0.00
2017-11-21T05:06:41.796Z,0.00
2017-11-21T05:07:41.744Z,0.00
2017-11-21T05:08:41.686Z,0.00
2017-11-21T05:09:41.606Z,0.00
2017-11-21T05:10:41.539Z,0.00
2017-11-21T05:11:41.471Z,0.00
2017-11-21T05:12:41.410Z,0.00
2017-11-21T05:13:41.352Z,0.00
2017-11-21T05:14:41.292Z,0.00
2017-11-21T05:15:41.240Z,0.00
2017-11-21T05:16:41.161Z,0.00
2017-11-21T05:17:41.099Z,0.00
2017-11-21T05:18:41.030Z,0.00
2017-11-21T05:19:40.965Z,0.00
2017-11-21T05:20:40.907Z,0.00
2017-11-21T05:21:40.848Z,0.00
2017-11-21T05:22:40.790Z,0.00
2017-11-21T05:23:40.735Z,0.00
2017-11-21T05:24:40.657Z,0.00
2017-11-21T05:25:40.597Z,0.00
2017-11-21T05:26:40.522Z,0.00
2017-11-21T05:27:40.464Z,0.00
2017-11-21T05:28:40.404Z,0.00
2017-11-21T05:29:40.343Z,0.00
2017-11-21T05:30:40.287Z,0.00
2017-11-21T05:31:40.216Z,0.00
2017-11-21T05:32:40.150Z,0.00
2017-11-21T05:33:40.084Z,0.00
2017-11-21T05:34:40.017Z,0.00
2017-11-21T05:35:39.960Z,0.00
2017-11-21T05:36:39.899Z,0.00
2017-11-21T05:37:39.839Z,0.00
2017-11-21T05:38:39.786Z,0.00
2017-11-21T05:39:39.706Z,0.00
2017-11-21T05:40:39.643Z,0.00
2017-11-21T05:41:39.574Z,0.00
2017-11-21T05:42:39.512Z,0.00
2017-11-21T05:43:39.453Z,0.00
2017-11-21T05:44:39.394Z,0.00
2017-11-21T05:45:39.337Z,0.00
2017-11-21T05:46:39.263Z,0.00
2017-11-21T05:47:39.200Z,0.00
2017-11-21T05:48:39.140Z,0.00
2017-11-21T05:49:39.068Z,0.00
2017-11-21T05:50:39.007Z,0.00
2017-11-21T05:51:38.946Z,0.00
2017-11-21T05:52:38.889Z,0.00
2017-11-21T05:53:38.834Z,0.00
2017-11-21T05:54:38.756Z,0.00
2017-11-21T05:55:38.692Z,0.00
2017-11-21T05:56:38.623Z,0.00
2017-11-21T05:57:38.562Z,0.00
2017-11-21T05:58:38.503Z,0.00
2017-11-21T05:59:38.442Z,0.00
2017-11-21T06:00:38.389Z,0.00
2017-11-21T06:01:38.333Z,0.00
2017-11-21T06:02:38.248Z,0.00
2017-11-21T06:03:38.188Z,0.00
2017-11-21T06:04:38.118Z,0.00
2017-11-21T06:05:38.058Z,0.00
2017-11-21T06:06:37.997Z,0.00
2017-11-21T06:07:37.941Z,0.00
2017-11-21T06:08:37.885Z,0.00
2017-11-21T06:09:37.807Z,0.00
2017-11-21T06:10:37.741Z,0.00
2017-11-21T06:11:37.676Z,4.00
2017-11-21T06:12:37.612Z,0.00
2017-11-21T06:13:37.553Z,0.00
2017-11-21T06:14:37.497Z,4.00
2017-11-21T06:15:37.437Z,4.00
2017-11-21T06:16:37.363Z,4.00
2017-11-21T06:17:37.300Z,4.00
2017-11-21T06:18:37.231Z,8.00
2017-11-21T06:19:37.173Z,8.00
2017-11-21T06:20:37.108Z,8.00
2017-11-21T06:21:37.048Z,12.00
2017-11-21T06:22:36.990Z,12.00
2017-11-21T06:23:36.935Z,12.00
2017-11-21T06:24:36.856Z,12.00
2017-11-21T06:25:36.794Z,16.00
2017-11-21T06:26:36.721Z,16.00
2017-11-21T06:27:36.665Z,20.00
2017-11-21T06:28:36.603Z,20.00
2017-11-21T06:29:36.546Z,20.00
2017-11-21T06:30:36.487Z,24.00
2017-11-21T06:31:36.414Z,28.00
2017-11-21T06:32:36.349Z,28.00
2017-11-21T06:33:36.287Z,32.00
2017-11-21T06:34:36.218Z,36.00
2017-11-21T06:35:36.162Z,40.00
2017-11-21T06:36:36.098Z,44.00
2017-11-21T06:37:36.040Z,48.00
2017-11-21T06:38:35.989Z,56.00
2017-11-21T06:39:35.906Z,56.00
2017-11-21T06:40:35.845Z,60.00
2017-11-21T06:41:35.779Z,60.00
2017-11-21T06:42:35.715Z,64.00
2017-11-21T06:43:35.655Z,64.00
2017-11-21T06:44:35.593Z,68.00
2017-11-21T06:45:35.537Z,68.00
2017-11-21T06:46:35.487Z,68.00
2017-11-21T06:47:35.413Z,76.00
2017-11-21T06:48:35.339Z,84.00
2017-11-21T06:49:35.270Z,92.00
2017-11-21T06:50:35.212Z,108.00
2017-11-21T06:51:35.148Z,120.00
2017-11-21T06:52:35.090Z,136.00
2017-11-21T06:53:35.023Z,140.00
2017-11-21T06:54:34.961Z,148.00
2017-11-21T06:55:34.897Z,156.00
2017-11-21T06:56:34.831Z,160.00
2017-11-21T06:57:34.766Z,176.00
2017-11-21T06:58:34.707Z,184.00
2017-11-21T06:59:34.646Z,180.00
2017-11-21T07:00:34.588Z,184.00
2017-11-21T07:01:34.532Z,196.00
2017-11-21T07:02:34.460Z,212.00
2017-11-21T07:03:34.392Z,244.00
2017-11-21T07:04:34.324Z,264.00
2017-11-21T07:05:34.264Z,272.00
2017-11-21T07:06:34.203Z,280.00
2017-11-21T07:07:34.141Z,276.00
2017-11-21T07:08:34.085Z,276.00
2017-11-21T07:09:34.039Z,272.00
2017-11-21T07:10:33.949Z,288.00
2017-11-21T07:11:33.888Z,308.00
2017-11-21T07:12:33.818Z,316.00
2017-11-21T07:13:33.758Z,340.00
2017-11-21T07:14:33.698Z,400.00
2017-11-21T07:15:33.640Z,440.00
2017-11-21T07:16:33.572Z,420.00
2017-11-21T07:17:33.509Z,424.00
2017-11-21T07:18:33.445Z,392.00
2017-11-21T07:19:33.383Z,356.00
2017-11-21T07:20:33.314Z,348.00
2017-11-21T07:21:33.254Z,340.00
2017-11-21T07:22:33.194Z,344.00
2017-11-21T07:23:33.136Z,352.00
2017-11-21T07:24:33.082Z,352.00
2017-11-21T07:25:33.005Z,332.00
2017-11-21T07:26:32.941Z,328.00
2017-11-21T07:27:32.879Z,340.00
2017-11-21T07:28:32.815Z,348.00
2017-11-21T07:29:32.752Z,364.00
2017-11-21T07:30:32.691Z,388.00
2017-11-21T07:31:32.633Z,388.00
2017-11-21T07:32:32.586Z,380.00
2017-11-21T07:33:32.501Z,392.00
2017-11-21T07:34:32.437Z,412.00
2017-11-21T07:35:32.370Z,416.00
2017-11-21T07:36:32.308Z,404.00
2017-11-21T07:37:32.248Z,396.00
2017-11-21T07:38:32.186Z,404.00
2017-11-21T07:39:32.130Z,428.00
2017-11-21T07:40:32.077Z,456.00
2017-11-21T07:41:31.999Z,468.00
2017-11-21T07:42:31.934Z,484.00
2017-11-21T07:43:31.866Z,524.00
2017-11-21T07:44:31.806Z,580.00
2017-11-21T07:45:31.746Z,600.00
2017-11-21T07:46:31.724Z,608.00
2017-11-21T07:47:31.670Z,628.00
2017-11-21T07:48:31.611Z,664.00
2017-11-21T07:49:31.547Z,696.00
2017-11-21T07:50:31.483Z,708.00
2017-11-21T07:51:31.415Z,724.00
2017-11-21T07:52:31.358Z,732.00
2017-11-21T07:53:31.284Z,740.00
2017-11-21T07:54:31.220Z,780.00
2017-11-21T07:55:31.126Z,844.00
2017-11-21T07:56:31.071Z,920.00
2017-11-21T07:57:30.991Z,952.00
2017-11-21T07:58:30.928Z,1012.00
2017-11-21T07:59:30.857Z,1060.00
2017-11-21T08:00:30.798Z,1076.00
2017-11-21T08:01:30.741Z,1064.00
2017-11-21T08:02:30.679Z,1028.00
2017-11-21T08:03:30.623Z,1068.00
2017-11-21T08:04:30.577Z,1092.00
2017-11-21T08:05:30.495Z,1056.00
2017-11-21T08:06:30.424Z,1068.00
2017-11-21T08:07:30.361Z,1120.00
2017-11-21T08:08:30.296Z,1164.00
2017-11-21T08:09:30.241Z,1152.00
2017-11-21T08:10:30.174Z,1128.00
2017-11-21T08:11:30.121Z,1176.00
2017-11-21T08:12:30.066Z,1232.00
2017-11-21T08:13:29.989Z,1268.00
2017-11-21T08:14:29.924Z,1312.00
2017-11-21T08:15:29.855Z,1216.00
2017-11-21T08:16:29.795Z,1196.00
2017-11-21T08:17:29.736Z,1188.00
2017-11-21T08:18:29.675Z,1124.00
2017-11-21T08:19:29.619Z,1088.00
2017-11-21T08:20:29.563Z,1108.00
2017-11-21T08:21:29.485Z,1136.00
2017-11-21T08:22:29.422Z,1124.00
2017-11-21T08:23:29.354Z,1092.00
2017-11-21T08:24:29.292Z,1112.00
2017-11-21T08:25:29.258Z,1108.00
2017-11-21T08:26:29.173Z,1124.00
2017-11-21T08:27:29.116Z,1156.00
2017-11-21T08:28:29.061Z,1160.00
2017-11-21T08:29:28.987Z,1120.00
2017-11-21T08:30:28.922Z,1152.00
2017-11-21T08:31:28.854Z,1228.00
2017-11-21T08:32:28.792Z,1260.00
2017-11-21T08:33:28.733Z,1344.00
2017-11-21T08:34:28.673Z,1376.00
2017-11-21T08:35:28.614Z,1404.00
2017-11-21T08:36:28.558Z,1396.00
2017-11-21T08:37:28.483Z,1376.00
2017-11-21T08:38:28.421Z,1388.00
2017-11-21T08:39:28.367Z,1384.00
2017-11-21T08:40:28.292Z,1432.00
2017-11-21T08:41:28.235Z,1416.00
2017-11-21T08:42:28.172Z,1380.00
2017-11-21T08:43:28.107Z,1344.00
2017-11-21T08:44:28.055Z,1340.00
2017-11-21T08:45:28.002Z,1296.00
2017-11-21T08:46:27.933Z,1248.00
2017-11-21T08:47:27.864Z,1308.00
2017-11-21T08:48:27.798Z,1404.00
2017-11-21T08:49:27.731Z,1536.00
2017-11-21T08:50:27.670Z,1672.00
2017-11-21T08:51:27.611Z,1632.00
2017-11-21T08:52:27.555Z,1600.00
2017-11-21T08:53:27.499Z,1564.00
2017-11-21T08:54:27.427Z,1564.00
2017-11-21T08:55:27.360Z,1540.00
2017-11-21T08:56:27.299Z,1512.00
2017-11-21T08:57:27.230Z,1540.00
2017-11-21T08:58:27.172Z,1568.00
2017-11-21T08:59:27.110Z,1632.00
2017-11-21T09:00:27.052Z,1760.00
2017-11-21T09:01:27.003Z,1788.00
2017-11-21T09:02:26.942Z,1760.00
2017-11-21T09:03:26.863Z,1720.00
2017-11-21T09:04:26.801Z,1688.00
2017-11-21T09:05:26.729Z,1640.00
2017-11-21T09:06:26.671Z,1584.00
2017-11-21T09:07:26.612Z,1560.00
2017-11-21T09:08:26.551Z,1532.00
2017-11-21T09:09:26.493Z,1520.00
2017-11-21T09:10:26.440Z,1496.00
2017-11-21T09:11:26.363Z,1504.00
2017-11-21T09:12:26.300Z,1524.00
2017-11-21T09:13:26.238Z,1580.00
2017-11-21T09:14:26.171Z,1688.00
2017-11-21T09:15:26.115Z,1736.00
2017-11-21T09:16:26.053Z,1724.00
2017-11-21T09:17:25.992Z,1644.00
2017-11-21T09:18:25.938Z,1592.00
2017-11-21T09:19:25.883Z,1648.00
2017-11-21T09:20:25.801Z,1732.00
2017-11-21T09:21:25.742Z,1820.00
2017-11-21T09:22:25.672Z,1876.00
2017-11-21T09:23:25.612Z,1964.00
2017-11-21T09:24:25.554Z,2076.00
2017-11-21T09:25:25.490Z,2040.00
2017-11-21T09:26:25.435Z,2036.00
2017-11-21T09:27:25.381Z,2024.00
2017-11-21T09:28:25.304Z,1992.00
2017-11-21T09:29:25.243Z,1976.00
2017-11-21T09:30:25.173Z,1880.00
2017-11-21T09:31:25.110Z,1932.00
2017-11-21T09:32:25.057Z,2004.00
2017-11-21T09:33:24.998Z,2168.00
2017-11-21T09:34:24.934Z,2308.00
2017-11-21T09:35:24.878Z,2340.00
2017-11-21T09:36:24.823Z,2384.00
2017-11-21T09:37:24.870Z,2308.00
2017-11-21T09:38:24.682Z,2216.00
2017-11-21T09:39:24.622Z,2272.00
2017-11-21T09:40:24.554Z,2264.00
2017-11-21T09:41:24.494Z,2428.00
2017-11-21T09:42:24.435Z,2480.00
2017-11-21T09:43:24.376Z,2492.00
2017-11-21T09:44:24.321Z,2628.00
2017-11-21T09:45:24.266Z,2884.00
2017-11-21T09:46:24.188Z,2912.00
2017-11-21T09:47:24.124Z,2908.00
2017-11-21T09:48:24.057Z,3044.00
2017-11-21T09:49:24.019Z,3208.00
2017-11-21T09:50:23.938Z,3124.00
2017-11-21T09:51:23.877Z,3040.00
2017-11-21T09:52:23.818Z,2908.00
2017-11-21T09:53:23.765Z,2768.00
2017-11-21T09:54:23.709Z,2520.00
2017-11-21T09:55:23.629Z,2364.00
2017-11-21T09:56:23.567Z,2284.00
2017-11-21T09:57:23.506Z,2284.00
2017-11-21T09:58:23.439Z,2516.00
2017-11-21T09:59:23.381Z,2712.00
2017-11-21T10:00:23.320Z,2676.00
2017-11-21T10:01:23.262Z,2708.00
2017-11-21T10:02:23.207Z,3084.00
2017-11-21T10:03:23.153Z,3036.00
2017-11-21T10:04:23.070Z,2936.00
2017-11-21T10:05:23.011Z,3136.00
2017-11-21T10:06:22.940Z,3244.00
2017-11-21T10:07:22.897Z,3292.00
2017-11-21T10:08:22.828Z,3324.00
2017-11-21T10:09:22.767Z,3364.00
2017-11-21T10:10:22.705Z,3264.00
2017-11-21T10:11:22.651Z,3292.00
2017-11-21T10:12:22.596Z,3136.00
2017-11-21T10:13:22.525Z,3020.00
2017-11-21T10:14:22.452Z,2928.00
2017-11-21T10:15:22.385Z,2916.00
2017-11-21T10:16:22.330Z,2728.00
2017-11-21T10:17:22.266Z,2780.00
2017-11-21T10:18:22.205Z,2908.00
2017-11-21T10:19:22.150Z,2916.00
2017-11-21T10:20:22.092Z,2952.00
2017-11-21T10:21:22.039Z,3148.00
2017-11-21T10:22:21.961Z,3364.00
2017-11-21T10:23:21.897Z,3528.00
2017-11-21T10:24:21.834Z,3596.00
2017-11-21T10:25:21.770Z,3732.00
2017-11-21T10:26:21.708Z,3552.00
2017-11-21T10:27:21.649Z,3440.00
2017-11-21T10:28:21.592Z,3340.00
2017-11-21T10:29:21.524Z,3384.00
2017-11-21T10:30:21.481Z,3192.00
2017-11-21T10:31:21.405Z,3084.00
2017-11-21T10:32:21.339Z,3224.00
2017-11-21T10:33:21.277Z,3192.00
2017-11-21T10:34:21.213Z,3304.00
2017-11-21T10:35:21.153Z,3296.00
2017-11-21T10:36:21.092Z,3272.00
2017-11-21T10:37:21.036Z,3204.00
2017-11-21T10:38:20.981Z,3280.00
2017-11-21T10:39:20.925Z,3336.00
2017-11-21T10:40:20.850Z,3304.00
2017-11-21T10:41:20.784Z,3272.00
2017-11-21T10:42:20.725Z,3416.00
2017-11-21T10:43:20.656Z,3672.00
2017-11-21T10:44:20.599Z,3776.00
2017-11-21T10:45:20.540Z,3792.00
2017-11-21T10:46:20.486Z,3812.00
2017-11-21T10:47:20.423Z,3776.00
2017-11-21T10:48:20.368Z,3724.00
2017-11-21T10:49:20.292Z,3760.00
2017-11-21T10:50:20.229Z,3684.00
2017-11-21T10:51:20.169Z,3516.00
2017-11-21T10:52:20.101Z,3316.00
2017-11-21T10:53:20.044Z,3380.00
2017-11-21T10:54:19.984Z,3308.00
2017-11-21T10:55:19.923Z,3132.00
2017-11-21T10:56:19.868Z,3096.00
2017-11-21T10:57:19.810Z,3192.00
2017-11-21T10:58:19.756Z,3228.00
2017-11-21T10:59:19.676Z,3280.00
2017-11-21T11:00:19.616Z,3420.00
2017-11-21T11:01:19.555Z,3584.00
2017-11-21T11:02:19.486Z,3708.00
2017-11-21T11:03:19.429Z,3868.00
2017-11-21T11:04:19.370Z,3948.00
2017-11-21T11:05:19.312Z,3776.00
2017-11-21T11:06:19.255Z,3592.00
2017-11-21T11:07:19.199Z,3460.00
2017-11-21T11:08:19.124Z,3388.00
2017-11-21T11:09:19.063Z,3364.00
2017-11-21T11:10:19.000Z,3320.00
2017-11-21T11:11:18.934Z,3280.00
2017-11-21T11:12:18.881Z,3404.00
2017-11-21T11:13:18.817Z,3476.00
2017-11-21T11:14:18.755Z,3576.00
2017-11-21T11:15:18.699Z,3592.00
2017-11-21T11:16:18.643Z,3624.00
2017-11-21T11:17:18.588Z,3604.00
2017-11-21T11:18:18.507Z,3592.00
2017-11-21T11:19:18.446Z,3680.00
2017-11-21T11:20:18.379Z,3752.00
2017-11-21T11:21:18.324Z,3620.00
2017-11-21T11:22:18.260Z,3440.00
2017-11-21T11:23:18.202Z,3376.00
2017-11-21T11:24:18.141Z,3244.00
2017-11-21T11:25:18.085Z,3112.00
2017-11-21T11:26:18.032Z,3180.00
2017-11-21T11:27:17.956Z,3288.00
2017-11-21T11:28:17.895Z,3016.00
2017-11-21T11:29:17.833Z,2572.00
2017-11-21T11:30:17.767Z,2400.00
2017-11-21T11:31:17.710Z,2284.00
2017-11-21T11:32:17.649Z,2104.00
2017-11-21T11:33:17.588Z,2084.00
2017-11-21T11:34:17.529Z,2272.00
2017-11-21T11:35:17.474Z,2480.00
2017-11-21T11:36:17.403Z,2692.00
2017-11-21T11:37:17.342Z,2792.00
2017-11-21T11:38:17.279Z,2532.00
2017-11-21T11:39:17.216Z,2200.00
2017-11-21T11:40:17.152Z,2116.00
2017-11-21T11:41:17.100Z,2380.00
2017-11-21T11:42:17.032Z,2828.00
2017-11-21T11:43:16.975Z,3260.00
2017-11-21T11:44:16.918Z,3632.00
2017-11-21T11:45:16.863Z,3708.00
2017-11-21T11:46:16.786Z,3704.00
2017-11-21T11:47:16.724Z,3872.00
2017-11-21T11:48:16.669Z,4136.00
2017-11-21T11:49:16.598Z,4128.00
2017-11-21T11:50:16.537Z,3720.00
2017-11-21T11:51:16.482Z,3224.00
2017-11-21T11:52:16.419Z,2892.00
2017-11-21T11:53:16.362Z,2756.00
2017-11-21T11:54:16.298Z,2504.00
2017-11-21T11:55:16.251Z,2252.00
2017-11-21T11:56:16.180Z,2044.00
2017-11-21T11:57:16.112Z,2268.00
2017-11-21T11:58:16.049Z,2552.00
2017-11-21T11:59:15.982Z,2752.00
2017-11-21T12:00:15.925Z,2792.00
2017-11-21T12:01:15.865Z,2800.00
2017-11-21T12:02:15.803Z,2736.00
2017-11-21T12:03:15.742Z,2672.00
2017-11-21T12:04:15.695Z,2508.00
2017-11-21T12:05:15.621Z,2176.00
2017-11-21T12:06:15.559Z,1912.00
2017-11-21T12:07:15.500Z,1716.00
2017-11-21T12:08:15.428Z,1620.00
2017-11-21T12:09:15.368Z,1572.00
2017-11-21T12:10:15.310Z,1552.00
2017-11-21T12:11:15.250Z,1496.00
2017-11-21T12:12:15.193Z,1332.00
2017-11-21T12:13:15.139Z,1212.00
2017-11-21T12:14:15.083Z,1268.00
2017-11-21T12:15:15.004Z,1276.00
2017-11-21T12:16:14.942Z,1284.00
2017-11-21T12:17:14.875Z,1348.00
2017-11-21T12:18:14.814Z,1428.00
2017-11-21T12:19:14.755Z,1512.00
2017-11-21T12:20:14.695Z,1564.00
2017-11-21T12:21:14.634Z,1560.00
2017-11-21T12:22:14.582Z,1564.00
2017-11-21T12:23:14.527Z,1616.00
2017-11-21T12:24:14.447Z,1596.00
2017-11-21T12:25:14.388Z,1448.00
2017-11-21T12:26:14.328Z,1320.00
2017-11-21T12:27:14.258Z,1288.00
2017-11-21T12:28:14.200Z,1356.00
2017-11-21T12:29:14.142Z,1400.00
2017-11-21T12:30:14.080Z,1424.00
2017-11-21T12:31:14.025Z,1408.00
2017-11-21T12:32:13.970Z,1380.00
2017-11-21T12:33:13.896Z,1328.00
2017-11-21T12:34:13.834Z,1216.00
2017-11-21T12:35:13.771Z,1124.00
2017-11-21T12:36:13.702Z,1068.00
2017-11-21T12:37:13.645Z,1092.00
2017-11-21T12:38:13.619Z,1144.00
2017-11-21T12:39:13.526Z,1172.00
2017-11-21T12:40:13.469Z,1184.00
2017-11-21T12:41:13.414Z,1148.00
2017-11-21T12:42:13.361Z,1080.00
2017-11-21T12:43:13.279Z,1044.00
2017-11-21T12:44:13.216Z,1016.00
2017-11-21T12:45:13.150Z,1032.00
2017-11-21T12:46:13.089Z,1068.00
2017-11-21T12:47:13.035Z,1008.00
2017-11-21T12:48:12.972Z,1016.00
2017-11-21T12:49:12.913Z,1080.00
2017-11-21T12:50:12.856Z,1144.00
2017-11-21T12:51:12.803Z,1220.00
2017-11-21T12:52:12.724Z,1200.00
2017-11-21T12:53:12.663Z,1228.00
2017-11-21T12:54:12.601Z,1248.00
2017-11-21T12:55:12.541Z,1292.00
2017-11-21T12:56:12.477Z,1404.00
2017-11-21T12:57:12.416Z,1548.00
2017-11-21T12:58:12.355Z,1700.00
2017-11-21T12:59:12.303Z,1892.00
2017-11-21T13:00:12.245Z,2100.00
2017-11-21T13:01:12.172Z,2084.00
2017-11-21T13:02:12.108Z,1960.00
2017-11-21T13:03:12.042Z,1964.00
2017-11-21T13:04:11.981Z,1952.00
2017-11-21T13:05:11.920Z,1904.00
2017-11-21T13:06:11.862Z,1908.00
2017-11-21T13:07:11.808Z,1936.00
2017-11-21T13:08:11.744Z,2016.00
2017-11-21T13:09:11.688Z,2112.00
2017-11-21T13:10:11.633Z,2100.00
2017-11-21T13:11:11.561Z,1944.00
2017-11-21T13:12:11.496Z,1680.00
2017-11-21T13:13:11.433Z,1520.00
2017-11-21T13:14:11.370Z,1400.00
2017-11-21T13:15:11.307Z,1300.00
2017-11-21T13:16:11.263Z,1264.00
2017-11-21T13:17:11.188Z,1260.00
2017-11-21T13:18:11.132Z,1220.00
2017-11-21T13:19:11.077Z,1216.00
2017-11-21T13:20:11.021Z,1248.00
2017-11-21T13:21:10.943Z,1324.00
2017-11-21T13:22:10.883Z,1368.00
2017-11-21T13:23:10.812Z,1328.00
2017-11-21T13:24:10.753Z,1320.00
2017-11-21T13:25:10.694Z,1340.00
2017-11-21T13:26:10.634Z,1316.00
2017-11-21T13:27:10.577Z,1268.00
2017-11-21T13:28:10.520Z,1232.00
2017-11-21T13:29:10.465Z,1156.00
2017-11-21T13:30:10.389Z,1104.00
2017-11-21T13:31:10.326Z,1052.00
2017-11-21T13:32:10.277Z,1020.00
2017-11-21T13:33:10.197Z,992.00
2017-11-21T13:34:10.138Z,1016.00